createdAt,value
2022-11-16T00:01:43.354Z,100.00
2022-11-16T00:04:12.932Z,100.00
2022-11-16T00:06:41.044Z,100.00
2022-11-16T00:09:25.588Z,100.00
2022-11-16T00:11:55.963Z,100.00
2022-11-16T00:14:27.764Z,100.00
2022-11-16T00:16:55.937Z,100.00
2022-11-16T00:19:24.147Z,100.00
2022-11-16T00:21:52.254Z,100.00
2022-11-16T00:24:21.255Z,100.00
2022-11-16T00:26:49.932Z,100.00
2022-11-16T00:29:19.965Z,100.00
2022-11-16T00:31:49.944Z,100.00
2022-11-16T00:34:18.736Z,100.00
2022-11-16T00:36:46.900Z,100.00
2022-11-16T00:39:16.156Z,100.00
2022-11-16T00:41:44.745Z,100.00
2022-11-16T00:44:13.110Z,100.00
2022-11-16T00:46:41.154Z,100.00
2022-11-16T00:49:10.783Z,100.00
2022-11-16T00:51:38.957Z,100.00
2022-11-16T00:54:09.989Z,100.00
2022-11-16T00:56:38.857Z,100.00
2022-11-16T00:59:07.710Z,100.00
2022-11-16T01:01:35.660Z,100.00
2022-11-16T01:04:03.589Z,100.00
2022-11-16T01:06:32.832Z,100.00
2022-11-16T01:09:02.057Z,100.00
2022-11-16T01:11:47.365Z,100.00
2022-11-16T01:14:15.280Z,100.00
2022-11-16T01:16:44.667Z,100.00
2022-11-16T01:19:12.592Z,100.00
2022-11-16T01:21:41.832Z,100.00
2022-11-16T01:24:09.754Z,100.00
2022-11-16T01:26:37.639Z,100.00
2022-11-16T01:29:05.865Z,100.00
2022-11-16T01:31:38.146Z,100.00
2022-11-16T01:34:06.520Z,100.00
2022-11-16T01:36:36.604Z,100.00
2022-11-16T01:39:06.234Z,100.00
2022-11-16T01:41:45.585Z,100.00
2022-11-16T01:44:52.194Z,100.00
2022-11-16T01:47:20.319Z,100.00
2022-11-16T01:49:50.982Z,100.00
2022-11-16T01:52:30.730Z,100.00
2022-11-16T01:55:00.401Z,100.00
2022-11-16T01:57:36.627Z,100.00
2022-11-16T02:00:10.470Z,100.00
2022-11-16T02:02:54.738Z,100.00
2022-11-16T02:05:56.552Z,100.00
2022-11-16T02:08:53.306Z,100.00
2022-11-16T02:11:58.623Z,100.00
2022-11-16T02:14:39.220Z,100.00
2022-11-16T02:17:12.038Z,100.00
2022-11-16T02:20:00.103Z,100.00
2022-11-16T02:22:41.863Z,100.00
2022-11-16T02:25:14.911Z,100.00
2022-11-16T02:28:15.304Z,100.00
2022-11-16T02:30:46.335Z,100.00
2022-11-16T02:33:18.207Z,100.00
2022-11-16T02:35:48.493Z,100.00
2022-11-16T02:38:18.691Z,100.00
2022-11-16T02:40:49.497Z,100.00
2022-11-16T02:43:26.725Z,100.00
2022-11-16T02:45:59.791Z,100.00
2022-11-16T02:48:32.692Z,100.00
2022-11-16T02:51:01.797Z,100.00
2022-11-16T02:53:34.007Z,100.00
2022-11-16T02:56:02.112Z,100.00
2022-11-16T02:58:30.590Z,100.00
2022-11-16T03:01:03.239Z,100.00
2022-11-16T03:03:36.411Z,100.00
2022-11-16T03:06:08.664Z,100.00
2022-11-16T03:08:40.033Z,100.00
2022-11-16T03:11:29.785Z,100.00
2022-11-16T03:14:03.161Z,100.00
2022-11-16T03:16:36.581Z,100.00
2022-11-16T03:19:06.695Z,100.00
2022-11-16T03:21:39.289Z,100.00
2022-11-16T03:24:08.195Z,100.00
2022-11-16T03:26:52.022Z,100.00
2022-11-16T03:29:25.585Z,100.00
2022-11-16T03:31:59.896Z,100.00
2022-11-16T03:34:30.738Z,100.00
2022-11-16T03:37:00.361Z,100.00
2022-11-16T03:39:32.491Z,100.00
2022-11-16T03:42:02.109Z,100.00
2022-11-16T03:44:30.459Z,100.00
2022-11-16T03:46:59.723Z,100.00
2022-11-16T03:49:31.021Z,100.00
2022-11-16T03:51:59.489Z,100.00
2022-11-16T03:54:27.430Z,100.00
2022-11-16T03:56:55.311Z,100.00
2022-11-16T03:59:24.081Z,100.00
2022-11-16T04:01:52.568Z,100.00
2022-11-16T04:04:39.572Z,100.00
2022-11-16T04:07:26.663Z,100.00
2022-11-16T04:10:12.445Z,100.00
2022-11-16T04:13:02.292Z,100.00
2022-11-16T04:15:47.474Z,100.00
2022-11-16T04:18:33.173Z,100.00
2022-11-16T04:21:20.543Z,100.00
2022-11-16T04:24:06.326Z,100.00
2022-11-16T04:26:52.134Z,100.00
2022-11-16T04:29:20.365Z,100.00
2022-11-16T04:32:05.771Z,100.00
2022-11-16T04:34:51.217Z,100.00
2022-11-16T04:37:37.956Z,100.00
2022-11-16T04:40:08.484Z,100.00
2022-11-16T04:42:36.741Z,100.00
2022-11-16T04:45:23.611Z,100.00
2022-11-16T04:47:54.188Z,100.00
2022-11-16T04:50:26.719Z,100.00
2022-11-16T04:52:56.475Z,100.00
2022-11-16T04:55:24.418Z,100.00
2022-11-16T04:57:52.460Z,100.00
2022-11-16T05:00:22.698Z,100.00
2022-11-16T05:02:51.213Z,100.00
2022-11-16T05:05:19.382Z,100.00
2022-11-16T05:07:49.193Z,100.00
2022-11-16T05:10:24.752Z,100.00
2022-11-16T05:12:54.036Z,100.00
2022-11-16T05:15:23.297Z,100.00
2022-11-16T05:17:54.778Z,100.00
2022-11-16T05:20:42.769Z,100.00
2022-11-16T05:23:30.894Z,100.00
2022-11-16T05:26:05.154Z,100.00
2022-11-16T05:28:34.092Z,100.00
2022-11-16T05:31:03.152Z,100.00
2022-11-16T05:33:32.705Z,100.00
2022-11-16T05:36:00.688Z,100.00
2022-11-16T05:38:28.643Z,100.00
2022-11-16T05:40:59.477Z,100.00
2022-11-16T05:43:30.286Z,100.00
2022-11-16T05:46:24.683Z,100.00
2022-11-16T05:48:52.916Z,100.00
2022-11-16T05:51:21.472Z,100.00
2022-11-16T05:53:49.616Z,100.00
2022-11-16T05:56:22.156Z,100.00
2022-11-16T05:58:52.342Z,100.00
2022-11-16T06:01:21.287Z,100.00
2022-11-16T06:03:50.641Z,100.00
2022-11-16T06:06:19.937Z,100.00
2022-11-16T06:08:48.934Z,100.00
2022-11-16T06:11:22.300Z,100.00
2022-11-16T06:13:50.260Z,100.00
2022-11-16T06:16:19.885Z,100.00
2022-11-16T06:18:48.783Z,98.63
2022-11-16T06:21:19.467Z,100.00
2022-11-16T06:23:49.209Z,100.00
2022-11-16T06:26:18.756Z,100.00
2022-11-16T06:28:47.598Z,100.00
2022-11-16T06:31:15.582Z,100.00
2022-11-16T06:33:44.907Z,100.00
2022-11-16T06:36:19.696Z,97.97
2022-11-16T06:38:49.591Z,100.00
2022-11-16T06:41:18.155Z,100.00
2022-11-16T06:43:49.690Z,100.00
2022-11-16T06:46:20.653Z,100.00
2022-11-16T06:48:50.405Z,100.00
2022-11-16T06:51:19.340Z,93.68
2022-11-16T06:53:48.327Z,100.00
2022-11-16T06:56:17.073Z,96.80
2022-11-16T06:58:53.231Z,100.00
2022-11-16T07:01:22.137Z,100.00
2022-11-16T07:03:53.029Z,100.00
2022-11-16T07:06:20.982Z,100.00
2022-11-16T07:08:49.099Z,100.00
2022-11-16T07:11:21.269Z,95.15
2022-11-16T07:13:49.423Z,100.00
2022-11-16T07:16:17.931Z,100.00
2022-11-16T07:18:56.379Z,100.00
2022-11-16T07:21:24.844Z,100.00
2022-11-16T07:23:55.911Z,100.00
2022-11-16T07:26:24.234Z,97.61
2022-11-16T07:28:59.225Z,100.00
2022-11-16T07:31:27.809Z,100.00
2022-11-16T07:34:32.676Z,100.00
2022-11-16T07:37:09.871Z,99.05
2022-11-16T07:39:38.329Z,100.00
2022-11-16T07:42:11.787Z,100.00
2022-11-16T07:44:51.037Z,100.00
2022-11-16T07:47:19.938Z,100.00
2022-11-16T07:49:49.485Z,100.00
2022-11-16T07:52:20.562Z,100.00
2022-11-16T07:54:58.081Z,100.00
2022-11-16T07:57:28.216Z,100.00
2022-11-16T07:59:59.199Z,100.00
2022-11-16T08:02:28.849Z,100.00
2022-11-16T08:04:58.189Z,100.00
2022-11-16T08:07:28.951Z,100.00
2022-11-16T08:09:57.882Z,100.00
2022-11-16T08:12:26.399Z,100.00
2022-11-16T08:14:55.735Z,100.00
2022-11-16T08:17:25.014Z,100.00
2022-11-16T08:19:54.574Z,100.00
2022-11-16T08:22:24.628Z,98.09
2022-11-16T08:24:53.581Z,100.00
2022-11-16T08:27:21.773Z,100.00
2022-11-16T08:29:53.461Z,100.00
2022-11-16T08:32:22.361Z,100.00
2022-11-16T08:34:50.375Z,100.00
2022-11-16T08:37:18.615Z,100.00
2022-11-16T08:39:48.462Z,100.00
2022-11-16T08:42:16.341Z,100.00
2022-11-16T08:44:48.120Z,100.00
2022-11-16T08:47:18.906Z,100.00
2022-11-16T08:49:55.149Z,100.00
2022-11-16T08:52:26.080Z,100.00
2022-11-16T08:55:31.183Z,100.00
2022-11-16T08:57:59.186Z,100.00
2022-11-16T09:04:39.951Z,100.00
2022-11-16T09:07:07.909Z,100.00
2022-11-16T09:09:35.842Z,100.00
2022-11-16T09:12:05.520Z,100.00
2022-11-16T09:14:33.401Z,100.00
2022-11-16T09:17:01.302Z,100.00
2022-11-16T09:19:29.203Z,100.00
2022-11-16T09:21:57.106Z,100.00
2022-11-16T09:24:24.985Z,100.00
2022-11-16T09:26:52.846Z,100.00
2022-11-16T09:29:22.091Z,100.00
2022-11-16T09:31:49.955Z,100.00
2022-11-16T09:34:17.778Z,100.00
2022-11-16T09:36:45.676Z,100.00
2022-11-16T09:39:30.142Z,100.00
2022-11-16T09:42:06.613Z,100.00
2022-11-16T09:44:50.174Z,100.00
2022-11-16T09:47:21.646Z,100.00
2022-11-16T09:49:55.698Z,100.00
2022-11-16T09:52:29.965Z,100.00
2022-11-16T09:54:59.295Z,100.00
2022-11-16T09:57:30.216Z,100.00
2022-11-16T10:00:03.511Z,99.45
2022-11-16T10:02:44.028Z,100.00
2022-11-16T10:05:17.884Z,100.00
2022-11-16T10:07:48.380Z,100.00
2022-11-16T10:10:17.455Z,100.00
2022-11-16T10:12:47.400Z,100.00
2022-11-16T10:15:28.294Z,100.00
2022-11-16T10:18:14.078Z,100.00
2022-11-16T10:20:50.439Z,100.00
2022-11-16T10:23:26.351Z,100.00
2022-11-16T10:25:56.324Z,100.00
2022-11-16T10:28:45.044Z,100.00
2022-11-16T10:31:19.868Z,100.00
2022-11-16T10:33:49.888Z,100.00
2022-11-16T10:36:18.036Z,100.00
2022-11-16T10:38:46.589Z,100.00
2022-11-16T10:41:19.434Z,98.64
2022-11-16T10:43:47.419Z,95.28
2022-11-16T10:46:22.070Z,100.00
2022-11-16T10:48:56.795Z,100.00
2022-11-16T10:51:24.703Z,100.00
2022-11-16T10:53:55.703Z,100.00
2022-11-16T10:56:26.096Z,100.00
2022-11-16T10:58:56.583Z,100.00
2022-11-16T11:01:37.576Z,100.00
2022-11-16T11:04:17.343Z,100.00
2022-11-16T11:06:46.281Z,100.00
2022-11-16T11:09:23.897Z,100.00
2022-11-16T11:12:20.576Z,94.91
2022-11-16T11:15:04.010Z,100.00
2022-11-16T11:17:35.664Z,100.00
2022-11-16T11:20:05.653Z,100.00
2022-11-16T11:22:34.499Z,100.00
2022-11-16T11:25:03.468Z,100.00
2022-11-16T11:27:34.904Z,100.00
2022-11-16T11:30:03.839Z,100.00
2022-11-16T11:32:36.198Z,100.00
2022-11-16T11:35:06.435Z,100.00
2022-11-16T11:37:35.957Z,100.00
2022-11-16T11:40:22.533Z,99.65
2022-11-16T11:42:57.120Z,100.00
2022-11-16T11:45:29.283Z,100.00
2022-11-16T11:48:02.491Z,100.00
2022-11-16T11:50:51.639Z,100.00
2022-11-16T11:53:38.558Z,92.29
2022-11-16T11:56:07.143Z,100.00
2022-11-16T11:58:36.646Z,100.00
2022-11-16T12:01:25.717Z,100.00
2022-11-16T12:04:18.877Z,92.14
2022-11-16T12:06:52.315Z,100.00
2022-11-16T12:09:30.266Z,92.51
2022-11-16T12:12:11.806Z,100.00
2022-11-16T12:15:00.050Z,93.13
2022-11-16T12:17:34.418Z,79.33
2022-11-16T12:20:16.426Z,95.37
2022-11-16T12:22:59.739Z,100.00
2022-11-16T12:25:38.495Z,100.00
2022-11-16T12:28:16.021Z,94.59
2022-11-16T12:30:56.576Z,100.00
2022-11-16T12:33:34.320Z,100.00
2022-11-16T12:36:09.769Z,93.41
2022-11-16T12:38:46.511Z,99.81
2022-11-16T12:41:47.660Z,84.52
2022-11-16T12:44:20.822Z,97.14
2022-11-16T12:46:55.004Z,92.00
2022-11-16T12:49:48.762Z,89.50
2022-11-16T12:52:34.065Z,100.00
2022-11-16T12:55:26.765Z,100.00
2022-11-16T12:58:11.620Z,94.32
2022-11-16T13:00:51.617Z,100.00
2022-11-16T13:03:22.016Z,87.08
2022-11-16T13:05:59.122Z,100.00
2022-11-16T13:08:39.494Z,92.86
2022-11-16T13:11:13.001Z,100.00
2022-11-16T13:13:41.819Z,100.00
2022-11-16T13:16:10.789Z,100.00
2022-11-16T13:18:41.392Z,90.14
2022-11-16T13:21:15.815Z,100.00
2022-11-16T13:23:53.649Z,96.02
2022-11-16T13:26:24.320Z,100.00
2022-11-16T13:28:57.839Z,89.55
2022-11-16T13:31:29.896Z,79.38
2022-11-16T13:34:00.250Z,84.08
2022-11-16T13:36:46.237Z,100.00
2022-11-16T13:39:21.952Z,84.27
2022-11-16T13:41:51.157Z,85.50
2022-11-16T13:44:28.384Z,74.45
2022-11-16T13:46:59.684Z,70.54
2022-11-16T13:49:31.763Z,72.94
2022-11-16T13:52:17.292Z,92.42
2022-11-16T13:54:53.517Z,80.68
2022-11-16T13:57:24.997Z,84.67
2022-11-16T13:59:58.203Z,97.05
2022-11-16T14:02:31.952Z,77.59
2022-11-16T14:05:00.807Z,72.64
2022-11-16T14:07:37.262Z,77.93
2022-11-16T14:10:09.565Z,77.07
2022-11-16T14:12:58.512Z,80.98
2022-11-16T14:15:32.127Z,74.88
2022-11-16T14:18:23.110Z,81.11
2022-11-16T14:20:57.007Z,76.20
2022-11-16T14:23:31.887Z,77.66
2022-11-16T14:26:10.911Z,72.67
2022-11-16T14:29:11.622Z,74.96
2022-11-16T14:31:51.498Z,79.25
2022-11-16T14:34:22.074Z,81.86
2022-11-16T14:36:50.730Z,75.20
2022-11-16T14:39:26.457Z,83.17
2022-11-16T14:41:56.376Z,88.70
2022-11-16T14:44:27.800Z,89.60
2022-11-16T14:46:55.802Z,72.70
2022-11-16T14:49:25.927Z,79.25
2022-11-16T14:51:56.291Z,83.36
2022-11-16T14:54:30.112Z,82.27
2022-11-16T14:57:01.125Z,90.89
2022-11-16T14:59:29.617Z,93.75
2022-11-16T15:01:57.700Z,86.20
2022-11-16T15:04:26.674Z,99.29
2022-11-16T15:06:57.762Z,83.54
2022-11-16T15:09:28.838Z,81.30
2022-11-16T15:12:16.294Z,79.81
2022-11-16T15:14:48.748Z,99.75
2022-11-16T15:17:18.989Z,99.36
2022-11-16T15:19:55.344Z,100.00
2022-11-16T15:22:23.825Z,100.00
2022-11-16T15:24:55.482Z,100.00
2022-11-16T15:27:32.632Z,100.00
2022-11-16T15:30:01.734Z,84.84
2022-11-16T15:32:31.375Z,100.00
2022-11-16T15:35:05.014Z,98.71
2022-11-16T15:37:33.485Z,90.48
2022-11-16T15:40:03.504Z,87.48
2022-11-16T15:42:32.833Z,85.31
2022-11-16T15:45:01.222Z,100.00
2022-11-16T15:47:29.279Z,98.48
2022-11-16T15:49:57.180Z,100.00
2022-11-16T15:52:44.695Z,100.00
2022-11-16T15:55:40.017Z,100.00
2022-11-16T15:58:15.135Z,100.00
2022-11-16T16:00:43.326Z,100.00
2022-11-16T16:03:20.462Z,100.00
2022-11-16T16:05:48.782Z,100.00
2022-11-16T16:08:31.294Z,100.00
2022-11-16T16:11:04.970Z,100.00
2022-11-16T16:13:35.959Z,100.00
2022-11-16T16:16:23.062Z,100.00
2022-11-16T16:18:51.131Z,100.00
2022-11-16T16:21:19.189Z,100.00
2022-11-16T16:23:48.386Z,100.00
2022-11-16T16:26:16.524Z,100.00
2022-11-16T16:28:46.067Z,100.00
2022-11-16T16:31:14.374Z,100.00
2022-11-16T16:33:42.501Z,100.00
2022-11-16T16:36:11.670Z,100.00
2022-11-16T16:38:39.808Z,100.00
2022-11-16T16:41:08.062Z,100.00
2022-11-16T16:43:36.301Z,100.00
2022-11-16T16:46:06.293Z,99.08
2022-11-16T16:48:34.763Z,100.00
2022-11-16T16:51:02.977Z,100.00
2022-11-16T16:53:30.929Z,100.00
2022-11-16T16:55:58.852Z,100.00
2022-11-16T16:58:26.713Z,100.00
2022-11-16T17:01:00.885Z,100.00
2022-11-16T17:03:31.720Z,100.00
2022-11-16T17:06:01.774Z,100.00
2022-11-16T17:08:34.275Z,100.00
2022-11-16T17:11:02.351Z,100.00
2022-11-16T17:13:30.181Z,100.00
2022-11-16T17:15:58.211Z,100.00
2022-11-16T17:18:26.076Z,100.00
2022-11-16T17:20:55.270Z,96.97
2022-11-16T17:23:23.197Z,100.00
2022-11-16T17:25:51.159Z,100.00
2022-11-16T17:28:18.970Z,100.00
2022-11-16T17:30:46.840Z,85.62
2022-11-16T17:33:14.781Z,86.29
2022-11-16T17:35:42.895Z,100.00
2022-11-16T17:38:13.070Z,100.00
2022-11-16T17:40:41.334Z,95.95
2022-11-16T17:43:09.260Z,100.00
2022-11-16T17:45:37.226Z,86.92
2022-11-16T17:48:06.587Z,90.87
2022-11-16T17:50:34.529Z,88.77
2022-11-16T17:53:02.457Z,100.00
2022-11-16T17:55:31.772Z,97.06
2022-11-16T17:57:59.683Z,97.16
2022-11-16T18:00:27.574Z,95.51
2022-11-16T18:02:55.464Z,79.33
2022-11-16T18:05:23.330Z,83.76
2022-11-16T18:07:51.207Z,95.80
2022-11-16T18:10:19.586Z,100.00
2022-11-16T18:12:48.911Z,90.46
2022-11-16T18:15:33.169Z,88.46
2022-11-16T18:18:02.798Z,86.00
2022-11-16T18:20:31.108Z,87.90
2022-11-16T18:22:58.992Z,87.73
2022-11-16T18:25:26.910Z,100.00
2022-11-16T18:27:56.507Z,80.74
2022-11-16T18:30:25.231Z,89.86
2022-11-16T18:32:53.160Z,87.95
2022-11-16T18:35:21.041Z,100.00
2022-11-16T18:37:48.951Z,89.09
2022-11-16T18:40:18.021Z,98.33
2022-11-16T18:42:45.905Z,93.20
2022-11-16T18:45:15.320Z,100.00
2022-11-16T18:47:43.232Z,100.00
2022-11-16T18:50:18.986Z,90.37
2022-11-16T18:52:49.301Z,100.00
2022-11-16T18:55:17.192Z,96.84
2022-11-16T18:57:45.084Z,100.00
2022-11-16T19:00:16.204Z,94.32
2022-11-16T19:02:44.149Z,100.00
2022-11-16T19:05:12.029Z,86.47
2022-11-16T19:07:39.967Z,94.43
2022-11-16T19:10:09.250Z,88.96
2022-11-16T19:12:37.139Z,92.65
2022-11-16T19:15:05.782Z,85.08
2022-11-16T19:17:48.022Z,97.24
2022-11-16T19:20:22.811Z,86.31
2022-11-16T19:22:50.658Z,93.56
2022-11-16T19:25:18.487Z,95.78
2022-11-16T19:27:46.364Z,86.85
2022-11-16T19:30:14.332Z,100.00
2022-11-16T19:32:43.533Z,93.82
2022-11-16T19:35:12.037Z,92.93
2022-11-16T19:37:40.004Z,81.11
2022-11-16T19:40:09.273Z,80.86
2022-11-16T19:42:37.635Z,68.94
2022-11-16T19:45:06.603Z,75.61
2022-11-16T19:47:34.689Z,95.95
2022-11-16T19:50:04.086Z,88.55
2022-11-16T19:52:32.177Z,84.56
2022-11-16T19:55:00.303Z,79.75
2022-11-16T19:57:28.931Z,74.29
2022-11-16T19:59:56.965Z,72.09
2022-11-16T20:02:25.038Z,72.23
2022-11-16T20:04:53.376Z,74.96
2022-11-16T20:07:23.553Z,65.72
2022-11-16T20:09:53.570Z,70.65
2022-11-16T20:12:21.666Z,69.94
2022-11-16T20:14:49.725Z,74.96
2022-11-16T20:17:17.834Z,85.80
2022-11-16T20:19:45.832Z,82.67
2022-11-16T20:22:13.848Z,79.83
2022-11-16T20:24:43.314Z,81.57
2022-11-16T20:27:11.313Z,77.54
2022-11-16T20:29:39.190Z,91.40
2022-11-16T20:32:07.210Z,83.28
2022-11-16T20:34:35.346Z,89.24
2022-11-16T20:37:03.498Z,90.11
2022-11-16T20:39:31.619Z,81.12
2022-11-16T20:42:00.970Z,68.72
2022-11-16T20:44:30.039Z,79.58
2022-11-16T20:46:58.019Z,83.73
2022-11-16T20:49:26.058Z,78.82
2022-11-16T20:51:53.987Z,72.15
2022-11-16T20:54:22.193Z,77.35
2022-11-16T20:56:50.554Z,65.24
2022-11-16T20:59:20.172Z,82.09
2022-11-16T21:01:48.857Z,70.39
2022-11-16T21:04:17.206Z,71.54
2022-11-16T21:06:45.320Z,75.08
2022-11-16T21:09:15.470Z,65.26
2022-11-16T21:12:06.051Z,68.67
2022-11-16T21:14:35.369Z,73.21
2022-11-16T21:17:03.269Z,61.09
2022-11-16T21:19:31.147Z,57.73
2022-11-16T21:21:58.956Z,56.13
2022-11-16T21:24:28.344Z,71.96
2022-11-16T21:26:56.151Z,73.05
2022-11-16T21:29:39.998Z,72.58
2022-11-16T21:32:09.284Z,79.67
2022-11-16T21:34:40.092Z,65.25
2022-11-16T21:37:08.244Z,62.92
2022-11-16T21:39:36.093Z,71.92
2022-11-16T21:42:03.976Z,72.20
2022-11-16T21:44:41.836Z,66.69
2022-11-16T21:47:11.524Z,75.39
2022-11-16T21:50:02.405Z,78.36
2022-11-16T21:52:28.776Z,71.61
2022-11-16T21:55:00.326Z,71.98
2022-11-16T21:57:28.897Z,68.01
2022-11-16T21:59:56.798Z,80.60
2022-11-16T22:02:26.010Z,80.11
2022-11-16T22:05:11.303Z,76.82
2022-11-16T22:07:41.379Z,74.69
2022-11-16T22:10:11.122Z,66.49
2022-11-16T22:12:39.439Z,71.15
2022-11-16T22:15:08.392Z,65.83
2022-11-16T22:17:37.596Z,67.04
2022-11-16T22:20:06.386Z,67.68
2022-11-16T22:22:34.236Z,81.76
2022-11-16T22:25:02.059Z,73.27
2022-11-16T22:27:29.959Z,78.10
2022-11-16T22:29:57.859Z,66.06
2022-11-16T22:32:25.803Z,66.66
2022-11-16T22:34:55.072Z,71.23
2022-11-16T22:37:22.945Z,71.10
2022-11-16T22:39:50.812Z,73.84
2022-11-16T22:42:18.685Z,71.62
2022-11-16T22:44:46.484Z,90.59
2022-11-16T22:47:14.490Z,65.35
2022-11-16T22:49:42.662Z,74.25
2022-11-16T22:52:12.373Z,72.73
2022-11-16T22:54:40.528Z,72.86
2022-11-16T22:57:08.378Z,65.41
2022-11-16T22:59:36.327Z,70.93
2022-11-16T23:02:05.825Z,66.47
2022-11-16T23:04:33.755Z,64.19
2022-11-16T23:07:01.721Z,63.75
2022-11-16T23:09:31.984Z,84.72
2022-11-16T23:12:17.386Z,76.00
2022-11-16T23:15:02.439Z,77.21
2022-11-16T23:17:30.383Z,91.34
2022-11-16T23:20:17.770Z,82.28
2022-11-16T23:23:03.735Z,78.49
2022-11-16T23:25:50.981Z,100.00
2022-11-16T23:28:20.155Z,90.13
2022-11-16T23:30:48.104Z,100.00
2022-11-16T23:33:16.042Z,88.06
2022-11-16T23:35:44.392Z,85.45
2022-11-16T23:38:14.035Z,89.73
2022-11-16T23:40:43.326Z,100.00
2022-11-16T23:43:29.069Z,100.00
2022-11-16T23:45:56.936Z,100.00
2022-11-16T23:48:24.803Z,100.00
2022-11-16T23:50:52.620Z,100.00
2022-11-16T23:53:20.445Z,100.00
2022-11-16T23:55:52.879Z,96.70
2022-11-16T23:58:20.716Z,100.00
